createdAt,value
2019-03-22T00:01:56.432Z,101888.64
2019-03-22T00:04:27.792Z,101886.33
2019-03-22T00:06:59.138Z,101885.84
2019-03-22T00:09:30.643Z,101881.27
2019-03-22T00:12:04.197Z,101885.07
2019-03-22T00:14:37.022Z,101874.81
2019-03-22T00:17:08.630Z,101873.08
2019-03-22T00:19:39.905Z,101874.25
2019-03-22T00:22:11.227Z,101880.56
2019-03-22T00:24:42.416Z,101867.98
2019-03-22T00:27:16.602Z,101879.84
2019-03-22T00:29:47.145Z,101874.04
2019-03-22T00:32:18.297Z,101876.53
2019-03-22T00:34:49.817Z,101881.17
2019-03-22T00:37:20.966Z,101876.69
2019-03-22T00:39:52.332Z,101880.14
2019-03-22T00:42:23.676Z,101883.75
2019-03-22T00:44:55.505Z,101878.68
2019-03-22T00:47:27.801Z,101872.06
2019-03-22T00:50:01.138Z,101863.16
2019-03-22T00:52:32.506Z,101876.46
2019-03-22T00:55:03.790Z,101870.41
2019-03-22T00:57:35.227Z,101878.84
2019-03-22T01:00:10.192Z,101879.10
2019-03-22T01:02:41.283Z,101874.89
2019-03-22T01:05:12.446Z,101878.95
2019-03-22T01:07:43.524Z,101874.38
2019-03-22T01:10:15.067Z,101872.97
2019-03-22T01:12:46.164Z,101875.31
2019-03-22T01:15:17.350Z,101874.81
2019-03-22T01:17:48.803Z,101870.14
2019-03-22T01:20:20.360Z,101855.13
2019-03-22T01:22:51.807Z,101853.81
2019-03-22T01:25:23.377Z,101865.95
2019-03-22T01:27:54.460Z,101857.25
2019-03-22T01:30:25.700Z,101859.90
2019-03-22T01:32:56.905Z,101858.73
2019-03-22T01:35:28.154Z,101850.71
2019-03-22T01:37:59.353Z,101847.14
2019-03-22T01:40:30.600Z,101854.28
2019-03-22T01:43:01.763Z,101858.64
2019-03-22T01:45:34.925Z,101854.28
2019-03-22T01:48:07.649Z,101845.73
2019-03-22T01:50:38.951Z,101853.66
2019-03-22T01:53:10.129Z,101842.94
2019-03-22T01:55:41.242Z,101846.96
2019-03-22T01:58:12.379Z,101851.33
2019-03-22T02:00:44.774Z,101841.22
2019-03-22T02:03:15.833Z,101840.97
2019-03-22T02:05:47.028Z,101835.53
2019-03-22T02:08:18.130Z,101841.36
2019-03-22T02:10:49.236Z,101842.78
2019-03-22T02:13:20.932Z,101839.19
2019-03-22T02:15:52.410Z,101842.23
2019-03-22T02:18:23.853Z,101842.38
2019-03-22T02:20:55.229Z,101843.80
2019-03-22T02:23:26.827Z,101846.34
2019-03-22T02:25:58.047Z,101854.37
2019-03-22T02:28:29.279Z,101845.36
2019-03-22T02:31:01.311Z,101838.81
2019-03-22T02:33:33.078Z,101838.91
2019-03-22T02:36:04.446Z,101836.11
2019-03-22T02:38:35.886Z,101830.17
2019-03-22T02:41:07.745Z,101837.34
2019-03-22T02:43:39.341Z,101836.27
2019-03-22T02:46:11.158Z,101840.99
2019-03-22T02:48:42.494Z,101826.70
2019-03-22T02:51:13.731Z,101833.36
2019-03-22T02:53:44.869Z,101832.27
2019-03-22T02:56:16.125Z,101829.63
2019-03-22T02:58:48.113Z,101827.38
2019-03-22T03:01:20.904Z,101817.47
2019-03-22T03:03:52.745Z,101821.08
2019-03-22T03:06:24.100Z,101814.77
2019-03-22T03:08:55.707Z,101811.73
2019-03-22T03:11:27.080Z,101817.02
2019-03-22T03:13:58.484Z,101816.81
2019-03-22T03:16:30.124Z,101811.80
2019-03-22T03:19:01.325Z,101810.64
2019-03-22T03:21:32.457Z,101809.92
2019-03-22T03:24:03.797Z,101804.62
2019-03-22T03:26:35.011Z,101809.39
2019-03-22T03:29:06.318Z,101808.90
2019-03-22T03:31:37.413Z,101818.02
2019-03-22T03:34:08.952Z,101806.59
2019-03-22T03:36:41.022Z,101805.10
2019-03-22T03:39:12.655Z,101805.33
2019-03-22T03:41:48.125Z,101806.59
2019-03-22T03:44:20.276Z,101799.02
2019-03-22T03:46:52.127Z,101800.88
2019-03-22T03:49:24.994Z,101809.83
2019-03-22T03:51:56.210Z,101803.28
2019-03-22T03:54:27.293Z,101791.22
2019-03-22T03:56:59.445Z,101786.16
2019-03-22T03:59:30.747Z,101791.61
2019-03-22T04:02:03.526Z,101800.47
2019-03-22T04:04:34.935Z,101801.36
2019-03-22T04:07:06.529Z,101793.28
2019-03-22T04:09:37.980Z,101797.31
2019-03-22T04:12:09.649Z,101796.66
2019-03-22T04:14:40.987Z,101800.45
2019-03-22T04:17:12.444Z,101793.45
2019-03-22T04:19:47.338Z,101797.66
2019-03-22T04:22:20.529Z,101800.98
2019-03-22T04:24:55.741Z,101797.33
2019-03-22T04:27:29.136Z,101791.94
2019-03-22T04:30:04.566Z,101792.83
2019-03-22T04:32:49.550Z,101796.63
2019-03-22T04:35:21.340Z,101790.34
2019-03-22T04:37:54.064Z,101786.60
2019-03-22T04:40:31.221Z,101788.53
2019-03-22T04:43:04.750Z,101780.59
2019-03-22T04:45:39.640Z,101771.80
2019-03-22T04:48:30.851Z,101769.36
2019-03-22T04:51:08.874Z,101775.38
2019-03-22T04:53:46.742Z,101770.91
2019-03-22T04:56:26.145Z,101776.48
2019-03-22T04:59:00.537Z,101765.71
2019-03-22T05:01:47.380Z,101767.73
2019-03-22T05:04:21.503Z,101771.31
2019-03-22T05:06:54.431Z,101771.54
2019-03-22T05:09:27.735Z,101771.14
2019-03-22T05:12:00.007Z,101763.63
2019-03-22T05:14:32.373Z,101774.15
2019-03-22T05:17:03.722Z,101769.09
2019-03-22T05:19:37.294Z,101771.97
2019-03-22T05:22:08.458Z,101775.63
2019-03-22T05:24:40.566Z,101765.42
2019-03-22T05:27:11.734Z,101770.16
2019-03-22T05:29:44.557Z,101765.36
2019-03-22T05:32:16.912Z,101759.50
2019-03-22T05:34:48.786Z,101751.79
2019-03-22T05:37:20.031Z,101754.57
2019-03-22T05:39:52.187Z,101758.55
2019-03-22T05:42:23.267Z,101760.97
2019-03-22T05:44:54.944Z,101761.27
2019-03-22T05:47:27.128Z,101769.37
2019-03-22T05:49:59.910Z,101766.72
2019-03-22T05:52:31.570Z,101765.97
2019-03-22T05:55:02.925Z,101765.41
2019-03-22T05:57:35.527Z,101766.02
2019-03-22T06:00:08.532Z,101765.00
2019-03-22T06:02:41.676Z,101762.98
2019-03-22T06:05:14.554Z,101765.67
2019-03-22T06:07:45.911Z,101762.05
2019-03-22T06:10:18.562Z,101759.01
2019-03-22T06:12:50.012Z,101750.06
2019-03-22T06:15:22.318Z,101750.40
2019-03-22T06:17:54.324Z,101746.81
2019-03-22T06:20:25.791Z,101746.97
2019-03-22T06:22:57.020Z,101744.63
2019-03-22T06:25:29.445Z,101735.91
2019-03-22T06:28:00.846Z,101733.90
2019-03-22T06:30:33.282Z,101733.08
2019-03-22T06:33:04.484Z,101729.55
2019-03-22T06:35:35.684Z,101725.45
2019-03-22T06:38:09.941Z,101720.19
2019-03-22T06:40:41.672Z,101722.30
2019-03-22T06:43:12.947Z,101709.48
2019-03-22T06:45:44.395Z,101711.14
2019-03-22T06:48:16.998Z,101714.53
2019-03-22T06:50:48.715Z,101704.85
2019-03-22T06:53:19.903Z,101707.89
2019-03-22T06:55:51.248Z,101697.43
2019-03-22T06:58:24.421Z,101686.29
2019-03-22T07:00:56.102Z,101688.61
2019-03-22T07:03:27.713Z,101681.59
2019-03-22T07:06:01.464Z,101675.51
2019-03-22T07:08:32.638Z,101675.38
2019-03-22T07:11:04.345Z,101673.33
2019-03-22T07:13:37.383Z,101661.88
2019-03-22T07:16:08.713Z,101657.88
2019-03-22T07:18:40.039Z,101644.50
2019-03-22T07:21:11.281Z,101642.73
2019-03-22T07:23:42.621Z,101647.14
2019-03-22T07:26:15.145Z,101630.73
2019-03-22T07:28:47.669Z,101634.13
2019-03-22T07:31:21.343Z,101632.19
2019-03-22T07:33:53.722Z,101625.52
2019-03-22T07:36:25.271Z,101623.36
2019-03-22T07:38:56.616Z,101616.91
2019-03-22T07:41:30.102Z,101619.91
2019-03-22T07:44:02.906Z,101618.38
2019-03-22T07:46:34.286Z,101613.42
2019-03-22T07:49:06.112Z,101606.83
2019-03-22T07:51:38.375Z,101597.77
2019-03-22T07:54:09.519Z,101594.22
2019-03-22T07:56:40.799Z,101578.59
2019-03-22T07:59:12.170Z,101576.86
2019-03-22T08:01:43.664Z,101571.63
2019-03-22T08:04:16.008Z,101567.80
2019-03-22T08:06:51.732Z,101568.47
2019-03-22T08:09:24.124Z,101574.73
2019-03-22T08:11:56.831Z,101561.11
2019-03-22T08:14:28.656Z,101565.15
2019-03-22T08:16:59.877Z,101542.95
2019-03-22T08:19:32.106Z,101538.36
2019-03-22T08:22:04.641Z,101537.56
2019-03-22T08:24:38.477Z,101527.45
2019-03-22T08:27:13.663Z,101525.44
2019-03-22T08:29:44.862Z,101507.11
2019-03-22T08:32:16.070Z,101497.23
2019-03-22T08:34:48.116Z,101499.64
2019-03-22T08:37:19.363Z,101483.16
2019-03-22T08:39:51.193Z,101491.27
2019-03-22T08:42:22.425Z,101484.37
2019-03-22T08:44:54.532Z,101472.25
2019-03-22T08:47:33.619Z,101480.58
2019-03-22T08:50:02.198Z,101464.13
2019-03-22T08:52:33.612Z,101454.48
2019-03-22T08:55:05.029Z,101450.16
2019-03-22T08:57:36.361Z,101448.95
2019-03-22T09:00:11.184Z,101445.41
2019-03-22T09:02:42.569Z,101436.47
2019-03-22T09:05:14.877Z,101432.75
2019-03-22T09:07:57.116Z,101414.84
2019-03-22T09:10:28.613Z,101409.73
2019-03-22T09:13:01.086Z,101419.75
2019-03-22T09:15:41.138Z,101403.47
2019-03-22T09:18:08.207Z,101397.22
2019-03-22T09:20:40.420Z,101392.14
2019-03-22T09:23:11.840Z,101397.04
2019-03-22T09:25:43.508Z,101379.03
2019-03-22T09:28:15.368Z,101389.06
2019-03-22T09:30:47.986Z,101386.48
2019-03-22T09:33:19.297Z,101379.05
2019-03-22T09:35:50.635Z,101372.63
2019-03-22T09:38:22.505Z,101362.13
2019-03-22T09:40:54.190Z,101350.67
2019-03-22T09:43:25.554Z,101334.81
2019-03-22T09:45:57.537Z,101319.23
2019-03-22T09:48:28.791Z,101323.25
2019-03-22T09:51:00.674Z,101318.41
2019-03-22T09:53:32.117Z,101296.91
2019-03-22T09:56:06.602Z,101300.58
2019-03-22T09:58:37.880Z,101288.77
2019-03-22T10:01:23.231Z,101293.31
2019-03-22T10:03:45.590Z,101284.42
2019-03-22T10:06:16.551Z,101278.22
2019-03-22T10:08:48.733Z,101270.44
2019-03-22T10:11:21.191Z,101271.05
2019-03-22T10:13:52.864Z,101265.09
2019-03-22T10:16:24.934Z,101266.69
2019-03-22T10:18:57.095Z,101266.08
2019-03-22T10:21:28.432Z,101258.34
2019-03-22T10:23:59.937Z,101255.05
2019-03-22T10:26:33.221Z,101253.72
2019-03-22T10:29:06.904Z,101250.47
2019-03-22T10:31:37.974Z,101246.33
2019-03-22T10:34:10.434Z,101252.43
2019-03-22T10:36:44.307Z,101242.98
2019-03-22T10:39:17.540Z,101228.91
2019-03-22T10:41:50.574Z,101229.69
2019-03-22T10:44:23.668Z,101231.71
2019-03-22T10:46:56.027Z,101216.70
2019-03-22T10:49:27.973Z,101199.27
2019-03-22T10:52:00.799Z,101188.83
2019-03-22T10:54:32.207Z,101192.39
2019-03-22T10:57:04.593Z,101188.23
2019-03-22T10:59:41.231Z,101182.89
2019-03-22T11:02:12.377Z,101192.33
2019-03-22T11:04:45.131Z,101194.91
2019-03-22T11:07:16.991Z,101172.23
2019-03-22T11:09:49.288Z,101166.60
2019-03-22T11:12:20.680Z,101174.14
2019-03-22T11:14:52.466Z,101168.14
2019-03-22T11:17:25.116Z,101175.91
2019-03-22T11:19:58.171Z,101168.30
2019-03-22T11:22:29.454Z,101144.53
2019-03-22T11:25:01.141Z,101157.61
2019-03-22T11:27:32.913Z,101153.24
2019-03-22T11:30:10.813Z,101137.84
2019-03-22T11:32:43.651Z,101143.27
2019-03-22T11:35:16.171Z,101137.12
2019-03-22T11:37:47.605Z,101126.84
2019-03-22T11:40:19.249Z,101116.45
2019-03-22T11:42:51.514Z,101121.22
2019-03-22T11:45:24.703Z,101112.92
2019-03-22T11:47:56.033Z,101114.95
2019-03-22T11:50:29.031Z,101112.22
2019-03-22T11:53:00.635Z,101074.46
2019-03-22T11:55:32.129Z,101089.66
2019-03-22T11:58:04.242Z,101089.22
2019-03-22T12:00:36.701Z,101091.89
2019-03-22T12:03:10.158Z,101087.39
2019-03-22T12:05:41.484Z,101076.70
2019-03-22T12:08:13.179Z,101058.83
2019-03-22T12:10:45.377Z,101077.67
2019-03-22T12:13:16.823Z,101080.50
2019-03-22T12:15:49.836Z,101070.72
2019-03-22T12:18:22.213Z,101071.93
2019-03-22T12:20:53.603Z,101065.16
2019-03-22T12:23:25.054Z,101062.36
2019-03-22T12:25:56.537Z,101060.11
2019-03-22T12:28:29.817Z,101059.42
2019-03-22T12:31:01.332Z,101064.53
2019-03-22T12:33:32.795Z,101057.73
2019-03-22T12:36:04.488Z,101047.32
2019-03-22T12:38:37.381Z,101035.08
2019-03-22T12:41:09.509Z,101027.84
2019-03-22T12:43:41.745Z,101026.27
2019-03-22T12:46:13.977Z,100998.30
2019-03-22T12:48:45.497Z,101006.39
2019-03-22T12:51:18.807Z,101003.31
2019-03-22T12:53:50.053Z,101001.32
2019-03-22T12:56:22.763Z,100992.75
2019-03-22T12:58:56.440Z,100989.30
2019-03-22T13:01:29.757Z,100991.77
2019-03-22T13:04:04.201Z,100976.31
2019-03-22T13:06:36.301Z,100969.83
2019-03-22T13:09:08.340Z,100963.28
2019-03-22T13:11:41.462Z,100960.40
2019-03-22T13:14:13.508Z,100959.14
2019-03-22T13:16:48.049Z,100952.78
2019-03-22T13:19:20.941Z,100946.87
2019-03-22T13:21:52.730Z,100958.13
2019-03-22T13:24:27.540Z,100922.42
2019-03-22T13:26:59.375Z,100915.61
2019-03-22T13:29:36.348Z,100915.07
2019-03-22T13:32:09.231Z,100906.49
2019-03-22T13:34:44.002Z,100903.53
2019-03-22T13:37:15.843Z,100904.34
2019-03-22T13:39:47.451Z,100893.71
2019-03-22T13:42:22.414Z,100908.37
2019-03-22T13:44:54.327Z,100900.20
2019-03-22T13:47:29.371Z,100903.12
2019-03-22T13:50:00.547Z,100899.22
2019-03-22T13:52:31.745Z,100913.21
2019-03-22T13:55:04.437Z,100913.66
2019-03-22T13:57:38.662Z,100920.11
2019-03-22T14:00:14.978Z,100915.00
2019-03-22T14:02:47.443Z,100919.20
2019-03-22T14:05:19.576Z,100908.11
2019-03-22T14:07:50.897Z,100913.98
2019-03-22T14:10:30.215Z,100901.44
2019-03-22T14:13:03.375Z,100906.05
2019-03-22T14:15:37.844Z,100897.23
2019-03-22T14:18:12.016Z,100892.95
2019-03-22T14:20:43.252Z,100884.13
2019-03-22T14:23:14.399Z,100878.68
2019-03-22T14:25:47.620Z,100884.63
2019-03-22T14:28:18.997Z,100882.39
2019-03-22T14:30:50.270Z,100875.63
2019-03-22T14:33:21.740Z,100867.08
2019-03-22T14:35:53.307Z,100867.66
2019-03-22T14:38:24.683Z,100848.68
2019-03-22T14:40:57.180Z,100830.91
2019-03-22T14:43:28.507Z,100819.87
2019-03-22T14:46:01.283Z,100820.80
2019-03-22T14:48:32.556Z,100821.64
2019-03-22T14:51:03.859Z,100810.64
2019-03-22T14:53:35.378Z,100808.25
2019-03-22T14:56:07.485Z,100827.91
2019-03-22T14:58:38.766Z,100810.77
2019-03-22T15:01:10.748Z,100807.41
2019-03-22T15:03:43.159Z,100799.61
2019-03-22T15:06:14.539Z,100776.77
2019-03-22T15:08:46.541Z,100774.66
2019-03-22T15:11:17.691Z,100767.02
2019-03-22T15:13:51.668Z,100762.72
2019-03-22T15:16:33.574Z,100775.38
2019-03-22T15:19:22.531Z,100769.04
2019-03-22T15:22:06.162Z,100775.23
2019-03-22T15:24:47.376Z,100770.61
2019-03-22T15:27:23.761Z,100772.84
2019-03-22T15:30:10.794Z,100759.78
2019-03-22T15:32:53.113Z,100758.73
2019-03-22T15:35:42.711Z,100762.61
2019-03-22T15:38:21.848Z,100744.02
2019-03-22T15:40:56.626Z,100753.63
2019-03-22T15:43:27.920Z,100744.83
2019-03-22T15:45:59.490Z,100731.72
2019-03-22T15:48:36.174Z,100721.34
2019-03-22T15:51:08.541Z,100727.08
2019-03-22T15:53:40.647Z,100727.16
2019-03-22T15:56:15.441Z,100724.81
2019-03-22T15:58:47.900Z,100716.13
2019-03-22T16:01:21.661Z,100711.75
2019-03-22T16:03:53.312Z,100713.00
2019-03-22T16:06:26.395Z,100723.27
2019-03-22T16:08:57.729Z,100996.76
2019-03-22T16:11:28.942Z,100996.03
2019-03-22T16:14:01.424Z,101007.03
2019-03-22T16:16:32.678Z,100991.70
2019-03-22T16:19:03.868Z,101003.48
2019-03-22T16:21:34.988Z,101002.07
2019-03-22T16:24:06.315Z,100997.58
2019-03-22T16:26:37.680Z,100980.25
2019-03-22T16:29:10.763Z,100959.11
2019-03-22T16:31:41.861Z,100961.17
2019-03-22T16:34:13.155Z,100978.55
2019-03-22T16:36:47.394Z,100981.38
2019-03-22T16:39:18.553Z,100991.88
2019-03-22T16:41:49.758Z,100956.33
2019-03-22T16:44:21.155Z,100968.41
2019-03-22T16:46:52.324Z,100959.31
2019-03-22T16:49:23.511Z,100955.00
2019-03-22T16:51:56.849Z,100972.64
2019-03-22T16:54:28.049Z,100991.60
2019-03-22T16:57:01.791Z,101004.23
2019-03-22T16:59:33.934Z,100982.55
2019-03-22T17:02:06.134Z,100983.56
2019-03-22T17:04:38.184Z,100988.48
2019-03-22T17:07:09.482Z,100982.35
2019-03-22T17:09:40.808Z,100987.44
2019-03-22T17:12:11.915Z,100986.39
2019-03-22T17:14:44.060Z,100971.78
2019-03-22T17:17:16.321Z,100984.61
2019-03-22T17:19:47.690Z,100974.89
2019-03-22T17:22:24.407Z,100966.58
2019-03-22T17:24:55.583Z,100961.68
2019-03-22T17:27:26.794Z,100972.52
2019-03-22T17:29:57.833Z,100976.30
2019-03-22T17:32:29.071Z,100974.03
2019-03-22T17:35:00.114Z,100964.79
2019-03-22T17:37:31.311Z,100971.12
2019-03-22T17:40:06.610Z,100972.91
2019-03-22T17:42:39.114Z,100977.06
2019-03-22T17:45:16.350Z,100974.89
2019-03-22T17:47:49.358Z,100971.87
2019-03-22T17:50:22.282Z,100980.92
2019-03-22T17:52:57.356Z,100978.58
2019-03-22T17:55:28.564Z,100977.92
2019-03-22T17:58:03.447Z,100982.94
2019-03-22T18:00:36.499Z,100981.89
2019-03-22T18:03:12.585Z,100979.91
2019-03-22T18:05:44.848Z,100984.64
2019-03-22T18:08:18.153Z,100984.14
2019-03-22T18:10:50.214Z,100987.83
2019-03-22T18:13:21.320Z,100998.78
2019-03-22T18:15:54.768Z,100996.14
2019-03-22T18:18:26.938Z,101001.62
2019-03-22T18:20:58.581Z,100994.62
2019-03-22T18:23:35.703Z,101001.86
2019-03-22T18:26:03.039Z,101004.61
2019-03-22T18:28:34.126Z,101006.56
2019-03-22T18:31:05.191Z,101010.64
2019-03-22T18:33:36.396Z,101003.25
2019-03-22T18:36:08.190Z,101005.19
2019-03-22T18:38:39.521Z,101007.73
2019-03-22T18:41:10.994Z,101014.87
2019-03-22T18:43:42.255Z,101022.94
2019-03-22T18:46:13.516Z,101023.47
2019-03-22T18:48:44.595Z,101023.12
2019-03-22T18:51:15.724Z,101040.78
2019-03-22T18:53:46.825Z,101041.25
2019-03-22T18:56:18.612Z,101040.20
2019-03-22T18:58:49.883Z,101044.68
2019-03-22T19:01:21.246Z,101039.20
2019-03-22T19:03:54.248Z,101044.69
2019-03-22T19:06:25.367Z,101050.64
2019-03-22T19:08:57.269Z,101046.09
2019-03-22T19:11:28.514Z,101046.68
2019-03-22T19:13:59.815Z,101050.77
2019-03-22T19:16:32.302Z,101060.96
2019-03-22T19:19:04.645Z,101071.92
2019-03-22T19:21:36.425Z,101081.56
2019-03-22T19:24:07.568Z,101082.15
2019-03-22T19:26:39.540Z,101079.97
2019-03-22T19:29:11.607Z,101079.39
2019-03-22T19:31:42.703Z,101079.11
2019-03-22T19:34:13.935Z,101070.33
2019-03-22T19:36:47.023Z,101077.20
2019-03-22T19:39:18.286Z,101071.73
2019-03-22T19:41:50.726Z,101067.95
2019-03-22T19:44:21.872Z,101071.53
2019-03-22T19:46:52.946Z,101072.00
2019-03-22T19:49:24.223Z,101083.16
2019-03-22T19:51:55.362Z,101083.36
2019-03-22T19:54:26.526Z,101067.42
2019-03-22T19:56:57.855Z,101072.16
2019-03-22T19:59:29.251Z,101071.97
2019-03-22T20:02:00.755Z,101076.12
2019-03-22T20:04:32.310Z,101071.22
2019-03-22T20:07:03.576Z,101081.21
2019-03-22T20:09:34.805Z,101078.68
2019-03-22T20:12:06.057Z,101077.09
2019-03-22T20:14:37.326Z,101072.93
2019-03-22T20:17:09.676Z,101074.99
2019-03-22T20:19:41.025Z,101073.20
2019-03-22T20:22:12.304Z,101069.52
2019-03-22T20:24:44.453Z,101072.55
2019-03-22T20:27:15.472Z,101071.97
2019-03-22T20:29:46.561Z,101070.28
2019-03-22T20:32:17.872Z,101065.94
2019-03-22T20:34:49.123Z,101067.45
2019-03-22T20:37:20.478Z,101063.87
2019-03-22T20:39:52.748Z,101062.94
2019-03-22T20:42:24.097Z,101069.81
2019-03-22T20:44:55.248Z,101073.70
2019-03-22T20:47:26.614Z,101070.86
2019-03-22T20:49:57.935Z,101063.13
2019-03-22T20:52:29.173Z,101064.17
2019-03-22T20:55:00.636Z,101070.11
2019-03-22T20:57:32.037Z,101061.61
2019-03-22T21:00:05.465Z,101070.09
2019-03-22T21:02:37.104Z,101065.55
2019-03-22T21:05:08.600Z,101063.30
2019-03-22T21:07:39.616Z,101067.06
2019-03-22T21:10:10.885Z,101058.20
2019-03-22T21:12:42.231Z,101064.06
2019-03-22T21:15:23.864Z,101066.68
2019-03-22T21:17:49.118Z,101068.20
2019-03-22T21:20:20.160Z,101068.00
2019-03-22T21:22:51.253Z,101063.65
2019-03-22T21:25:22.498Z,101053.47
2019-03-22T21:27:55.548Z,101049.50
2019-03-22T21:30:26.675Z,101039.67
2019-03-22T21:32:57.676Z,101037.69
2019-03-22T21:35:37.249Z,101041.18
2019-03-22T21:38:10.338Z,101041.64
2019-03-22T21:40:35.115Z,101046.08
2019-03-22T21:43:06.647Z,101042.97
2019-03-22T21:45:37.767Z,101038.92
2019-03-22T21:48:09.399Z,101037.22
2019-03-22T21:50:40.688Z,101037.61
2019-03-22T21:53:11.718Z,101046.50
2019-03-22T21:55:49.755Z,101044.24
2019-03-22T21:58:21.305Z,101041.80
2019-03-22T22:00:52.993Z,101046.80
2019-03-22T22:03:25.232Z,101045.40
2019-03-22T22:05:58.735Z,101052.94
2019-03-22T22:08:32.431Z,101042.56
2019-03-22T22:11:05.261Z,101048.40
2019-03-22T22:13:38.147Z,101050.58
2019-03-22T22:16:09.317Z,101040.01
2019-03-22T22:18:41.897Z,101030.10
2019-03-22T22:21:13.064Z,101031.41
2019-03-22T22:23:44.490Z,101032.77
2019-03-22T22:26:15.759Z,101027.55
2019-03-22T22:28:47.053Z,101022.38
2019-03-22T22:31:18.110Z,101026.72
2019-03-22T22:33:49.146Z,101029.72
2019-03-22T22:36:20.939Z,101025.59
2019-03-22T22:38:52.091Z,101016.80
2019-03-22T22:41:23.584Z,101015.28
2019-03-22T22:43:54.645Z,101015.00
2019-03-22T22:46:25.681Z,101010.00
2019-03-22T22:48:56.810Z,101022.74
2019-03-22T22:51:28.011Z,101013.59
2019-03-22T22:53:59.096Z,101016.41
2019-03-22T22:56:31.450Z,101015.11
2019-03-22T22:59:02.769Z,101015.76
2019-03-22T23:01:33.790Z,101009.44
2019-03-22T23:04:06.296Z,101008.33
2019-03-22T23:06:37.582Z,101002.95
2019-03-22T23:09:10.502Z,100994.92
2019-03-22T23:11:41.678Z,100997.95
2019-03-22T23:14:12.854Z,100995.03
2019-03-22T23:16:43.923Z,100984.46
2019-03-22T23:19:16.788Z,100990.31
2019-03-22T23:21:47.836Z,100997.95
2019-03-22T23:24:18.831Z,101004.25
2019-03-22T23:26:49.877Z,100997.66
2019-03-22T23:29:21.043Z,100990.14
2019-03-22T23:31:53.145Z,100988.44
2019-03-22T23:34:25.817Z,100993.34
2019-03-22T23:36:56.948Z,100996.72
2019-03-22T23:39:27.925Z,100986.09
2019-03-22T23:41:59.644Z,100990.90
2019-03-22T23:44:30.753Z,100985.23
2019-03-22T23:47:02.109Z,100982.02
2019-03-22T23:49:33.287Z,100974.48
2019-03-22T23:52:04.500Z,100982.59
2019-03-22T23:54:36.668Z,100966.47
2019-03-22T23:57:07.951Z,100961.74
2019-03-22T23:59:39.019Z,100968.84
